Boundless — WDJ4923 — position and weather

sailwx.info

Track history (hours):
 
Tides and Currents Weather Stations Pressure Air Temp Water Temp Dewpoint Dewpoint Depression Visibility Wind Speed Wind Dir Waves Ship Positions

Boundless

Owner: Sharpe, James D, Vienna, VA. More information available from US FCC via Universal Licensing System.

Last reported at 2017-Dec-10 18:23 UTC. Time now 2017-Dec-11 04:07 UTC.
Position N 17°01' W 061°47'.

Length 19 m.

Type: Sailing vessel. MMSI: 367782520.

Date/timePositionNaut miles runAvg speedWind from/ knotsBaromVisibWave heightAir tempDewpointWater temp
2017-Dec-10 18:23N 17°01' W 061°47'0 0.4
2017-Dec-10 18:00N 17°01' W 061°47'2 4.8
2017-Dec-10 17:30N 16°60' W 061°49'3 5.2
2017-Dec-10 17:00N 16°60' W 061°52'3 5.1
2017-Dec-10 16:30N 17°01' W 061°54'3 5.4
2017-Dec-10 15:58N 17°03' W 061°56'3 5.2
2017-Dec-10 15:27N 17°05' W 061°54'1 1.6
2017-Dec-10 14:56N 17°06' W 061°54'0 0.0
2017-Dec-09 16:58N 17°06' W 061°54'1 2.8
2017-Dec-09 16:30N 17°05' W 061°55'2 3.5
2017-Dec-09 16:00N 17°04' W 061°53'  
2017-Dec-01 17:24N 17°04' W 061°53'0 0.3
2017-Dec-01 17:00N 17°04' W 061°53'0 0.4
2017-Dec-01 16:29N 17°04' W 061°53'1 0.0
2017-Nov-30 20:42N 17°04' W 061°54'0 0.1
2017-Nov-30 20:30N 17°04' W 061°54'3 5.7
2017-Nov-30 20:01N 17°06' W 061°56'3 5.3
2017-Nov-30 19:31N 17°09' W 061°58'3 6.0
2017-Nov-30 19:00N 17°11' W 061°58'4 7.8
2017-Nov-30 18:30N 17°15' W 061°59'  
Track history (hours):
 
Tides and Currents Weather Stations Pressure Air Temp Water Temp Dewpoint Dewpoint Depression Visibility Wind Speed Wind Dir Waves Ship Positions

Boundless

Owner: Sharpe, James D, Vienna, VA. More information available from US FCC via Universal Licensing System.

Last reported at 2017-Dec-10 18:23 UTC. Time now 2017-Dec-11 04:07 UTC.
Position N 17°01' W 061°47'.

Length 19 m.

Type: Sailing vessel. MMSI: 367782520.

Date/timePositionNaut miles runAvg speedWind from/ knotsBaromVisibWave heightAir tempDewpointWater temp
2017-Dec-10 18:23N 17°01' W 061°47'0 0.4
2017-Dec-10 18:00N 17°01' W 061°47'2 4.8
2017-Dec-10 17:30N 16°60' W 061°49'3 5.2
2017-Dec-10 17:00N 16°60' W 061°52'3 5.1
2017-Dec-10 16:30N 17°01' W 061°54'3 5.4
2017-Dec-10 15:58N 17°03' W 061°56'3 5.2
2017-Dec-10 15:27N 17°05' W 061°54'1 1.6
2017-Dec-10 14:56N 17°06' W 061°54'0 0.0
2017-Dec-09 16:58N 17°06' W 061°54'1 2.8
2017-Dec-09 16:30N 17°05' W 061°55'2 3.5
2017-Dec-09 16:00N 17°04' W 061°53'  
2017-Dec-01 17:24N 17°04' W 061°53'0 0.3
2017-Dec-01 17:00N 17°04' W 061°53'0 0.4
2017-Dec-01 16:29N 17°04' W 061°53'1 0.0
2017-Nov-30 20:42N 17°04' W 061°54'0 0.1
2017-Nov-30 20:30N 17°04' W 061°54'3 5.7
2017-Nov-30 20:01N 17°06' W 061°56'3 5.3
2017-Nov-30 19:31N 17°09' W 061°58'3 6.0
2017-Nov-30 19:00N 17°11' W 061°58'4 7.8
2017-Nov-30 18:30N 17°15' W 061°59'  

Dump ship's entire track history